Kelleys Island, Ohio
Current Conditions -  °F | °C
As of 2:13 PM on Friday 21 Nov 2014 (Local Time) from KPCW Reporting Station
Clear Clear  
Wind Chill: 18°   Ceiling: Unl
Heat Index: 27°   Visibility: 10mi
Dew Point: 10°   Wind: 8mph
Humidity: 51%   Direction: 200°SSW
Pressure: 30.48"   Gusts: NA
Location:  41.6°N, 82.71°W
Report Text: KPCW 211913Z AUTO 20007KT 10SM CLR M03/M12 A3048 RMK AO2 $
Loading
Personal Weather Stations






























Interactive Weather Map New forecast layout! Learn more

10-Day Weather Forecast

Advertisements
Track Severe Weather on mobile